Terminal Aerodrome Forecast
Issued by NWS Rapid City, SD

Home | Current Version | Previous Version | Text Only | Print | Product List | Glossary On
Versions: 1 2 3 4 5 6 7 8 9 10 11 12 13 14
000
FTUS43 KUNR 301120
TAFRAP
TAF
KRAP 301120Z 3012/3112 VRB05KT P6SM SCT100
     FM301500 15010KT P6SM BKN100
     FM301800 33020G30KT P6SM VCTS BKN060CB
     FM302300 33025G35KT P6SM OVC080
     FM310600 32012KT P6SM BKN100=

USA.gov is the U.S. government's official web portal to all federal, state and local government web resources and services.